This is the latest recevied weather packets stored in our database for station/object AC1IX. If no packets are shown the sender has not sent any weather packets the latest 10 day(s).
| Time | Temp. | Humidity | Pressure | Rain* | Wind** | Luminosity | Snow |
|---|---|---|---|---|---|---|---|
| 1777826055 | 7.78° C | 58% | 1009.7 hPa | 0 mm | - | 257 W/m² | - |
| 1777825751 | 7.22° C | 60% | 1009.9 hPa | 0 mm | - | 173 W/m² | - |
| 1777825449 | 7.22° C | 57% | 1010.1 hPa | 0 mm | - | 118 W/m² | - |
| 1777825146 | 7.22° C | 57% | 1009.9 hPa | 0 mm | - | 133 W/m² | - |
| 1777824842 | 7.22° C | 58% | 1010.1 hPa | 0 mm | - | 127 W/m² | - |
| 1777824539 | 6.67° C | 58% | 1010.1 hPa | 0 mm | - | 104 W/m² | - |
| 1777824235 | 7.22° C | 55% | 1010.2 hPa | 0 mm | - | 99 W/m² | - |
| 1777823931 | 7.22° C | 56% | 1010 hPa | 0 mm | - | 127 W/m² | - |
| 1777823629 | 7.78° C | 53% | 1009.9 hPa | 0 mm | - | 145 W/m² | - |
| 1777823325 | 7.78° C | 53% | 1010 hPa | 0 mm | - | 202 W/m² | - |
| 1777823023 | 7.22° C | 55% | 1010.2 hPa | 0 mm | - | 257 W/m² | - |
| 1777822721 | 7.22° C | 54% | 1010 hPa | 0 mm | - | 172 W/m² | - |
| 1777822419 | 7.78° C | 55% | 1010 hPa | 0 mm | - | 136 W/m² | - |
| 1777822116 | 7.78° C | 51% | 1010.3 hPa | 0 mm | - | 166 W/m² | - |
| 1777821814 | 8.33° C | 52% | 1010.2 hPa | 0 mm | - | 157 W/m² | - |
| 1777821511 | 8.33° C | 51% | 1010 hPa | 0 mm | - | 240 W/m² | - |
| 1777821208 | 8.33° C | 53% | 1010.2 hPa | 0 mm | - | 237 W/m² | - |
| 1777820905 | 8.89° C | 56% | 1010.3 hPa | 0 mm | - | 177 W/m² | - |
| 1777820601 | 7.22° C | 60% | 1010.3 hPa | 0 mm | - | 394 W/m² | - |
| 1777820298 | 7.22° C | 62% | 1010.4 hPa | 0 mm | - | 207 W/m² | - |
| 1777819996 | 7.78° C | 62% | 1010.3 hPa | 0 mm | - | 122 W/m² | - |
| 1777819692 | 7.78° C | 64% | 1010.3 hPa | 0 mm | - | 342 W/m² | - |
| 1777819391 | 7.78° C | 67% | 1010.3 hPa | 0 mm | - | 304 W/m² | - |
| 1777819088 | 6.67° C | 72% | 1010.3 hPa | 0 mm | - | 352 W/m² | - |
| 1777818784 | 6.67° C | 71% | 1010.4 hPa | 0 mm | - | 193 W/m² | - |
* Rain latest hour (hover to see other rain measurements)
** Current wind speed in m/s (hover to see current wind gust speed)